sensor_id;sensor_type;location;lat;lon;timestamp;temperature;humidity
17170;DHT22;8700;48.222;16.342;2023-12-04T00:00:28;-0.60;99.90
17170;DHT22;8700;48.222;16.342;2023-12-04T00:03:49;-0.70;99.90
17170;DHT22;8700;48.222;16.342;2023-12-04T00:07:10;-0.60;99.90
17170;DHT22;8700;48.222;16.342;2023-12-04T00:10:31;-0.50;99.90
17170;DHT22;8700;48.222;16.342;2023-12-04T00:13:52;-0.50;99.90
17170;DHT22;8700;48.222;16.342;2023-12-04T00:17:15;-0.80;99.90
17170;DHT22;8700;48.222;16.342;2023-12-04T00:20:36;-0.90;99.90
17170;DHT22;8700;48.222;16.342;2023-12-04T00:23:57;-0.80;99.90
17170;DHT22;8700;48.222;16.342;2023-12-04T00:27:19;-0.60;99.90
17170;DHT22;8700;48.222;16.342;2023-12-04T00:30:41;-0.70;99.90
17170;DHT22;8700;48.222;16.342;2023-12-04T00:34:03;-0.90;99.90
17170;DHT22;8700;48.222;16.342;2023-12-04T00:37:25;-1.00;99.90
17170;DHT22;8700;48.222;16.342;2023-12-04T00:40:46;-0.90;99.90
17170;DHT22;8700;48.222;16.342;2023-12-04T00:44:08;-0.80;99.90
17170;DHT22;8700;48.222;16.342;2023-12-04T00:47:29;-0.90;99.90
17170;DHT22;8700;48.222;16.342;2023-12-04T00:50:52;-0.90;99.90
17170;DHT22;8700;48.222;16.342;2023-12-04T00:54:13;-0.80;99.90
17170;DHT22;8700;48.222;16.342;2023-12-04T00:57:34;-0.70;99.90
17170;DHT22;8700;48.222;16.342;2023-12-04T01:00:55;-0.80;99.90
17170;DHT22;8700;48.222;16.342;2023-12-04T01:04:16;-0.80;99.90
17170;DHT22;8700;48.222;16.342;2023-12-04T01:07:39;-0.90;99.90
17170;DHT22;8700;48.222;16.342;2023-12-04T01:11:00;-1.10;99.90
17170;DHT22;8700;48.222;16.342;2023-12-04T01:14:22;-1.00;99.90
17170;DHT22;8700;48.222;16.342;2023-12-04T01:17:43;-1.00;99.90
17170;DHT22;8700;48.222;16.342;2023-12-04T01:21:04;-1.20;99.90
17170;DHT22;8700;48.222;16.342;2023-12-04T01:24:26;-1.40;99.90
17170;DHT22;8700;48.222;16.342;2023-12-04T01:27:48;-1.50;99.90
17170;DHT22;8700;48.222;16.342;2023-12-04T01:31:09;-1.50;99.90
17170;DHT22;8700;48.222;16.342;2023-12-04T01:34:30;-1.40;99.90
17170;DHT22;8700;48.222;16.342;2023-12-04T01:37:51;-1.40;99.90
17170;DHT22;8700;48.222;16.342;2023-12-04T01:41:14;-1.40;99.90
17170;DHT22;8700;48.222;16.342;2023-12-04T01:44:35;-1.40;99.90
17170;DHT22;8700;48.222;16.342;2023-12-04T01:47:56;-1.60;99.90
17170;DHT22;8700;48.222;16.342;2023-12-04T01:51:19;-1.70;99.90
17170;DHT22;8700;48.222;16.342;2023-12-04T01:54:41;-1.80;99.90
17170;DHT22;8700;48.222;16.342;2023-12-04T01:58:04;-2.10;99.90
17170;DHT22;8700;48.222;16.342;2023-12-04T02:01:26;-2.20;99.90
17170;DHT22;8700;48.222;16.342;2023-12-04T02:04:48;-2.20;99.90
17170;DHT22;8700;48.222;16.342;2023-12-04T02:08:10;-2.20;99.90
17170;DHT22;8700;48.222;16.342;2023-12-04T02:11:31;-2.30;99.90
17170;DHT22;8700;48.222;16.342;2023-12-04T02:14:54;-2.30;99.90
17170;DHT22;8700;48.222;16.342;2023-12-04T02:18:15;-2.30;99.90
17170;DHT22;8700;48.222;16.342;2023-12-04T02:21:38;-2.30;99.90
17170;DHT22;8700;48.222;16.342;2023-12-04T02:25:00;-2.30;99.90
17170;DHT22;8700;48.222;16.342;2023-12-04T02:28:22;-2.30;99.90
17170;DHT22;8700;48.222;16.342;2023-12-04T02:31:43;-2.20;99.90
17170;DHT22;8700;48.222;16.342;2023-12-04T02:35:06;-2.00;99.90
17170;DHT22;8700;48.222;16.342;2023-12-04T02:38:29;-1.90;99.90
17170;DHT22;8700;48.222;16.342;2023-12-04T02:41:52;-1.70;99.90
17170;DHT22;8700;48.222;16.342;2023-12-04T02:45:13;-1.70;99.90
17170;DHT22;8700;48.222;16.342;2023-12-04T02:48:34;-1.80;99.90
17170;DHT22;8700;48.222;16.342;2023-12-04T02:51:55;-1.90;99.90
17170;DHT22;8700;48.222;16.342;2023-12-04T02:55:17;-1.90;99.90
17170;DHT22;8700;48.222;16.342;2023-12-04T02:58:39;-1.90;99.90
17170;DHT22;8700;48.222;16.342;2023-12-04T03:02:00;-1.80;99.90
17170;DHT22;8700;48.222;16.342;2023-12-04T03:05:21;-1.80;99.90
17170;DHT22;8700;48.222;16.342;2023-12-04T03:08:43;-1.90;99.90
17170;DHT22;8700;48.222;16.342;2023-12-04T03:12:05;-1.90;99.90
17170;DHT22;8700;48.222;16.342;2023-12-04T03:15:27;-2.00;99.90
17170;DHT22;8700;48.222;16.342;2023-12-04T03:18:49;-2.00;99.90
17170;DHT22;8700;48.222;16.342;2023-12-04T03:22:12;-2.00;99.90
17170;DHT22;8700;48.222;16.342;2023-12-04T03:25:33;-2.10;99.90
17170;DHT22;8700;48.222;16.342;2023-12-04T03:28:54;-2.10;99.90
17170;DHT22;8700;48.222;16.342;2023-12-04T03:32:16;-2.10;99.90
17170;DHT22;8700;48.222;16.342;2023-12-04T03:35:37;-2.00;99.90
17170;DHT22;8700;48.222;16.342;2023-12-04T03:38:58;-2.10;99.90
17170;DHT22;8700;48.222;16.342;2023-12-04T03:42:19;-2.10;99.90
17170;DHT22;8700;48.222;16.342;2023-12-04T03:45:40;-2.10;99.90
17170;DHT22;8700;48.222;16.342;2023-12-04T03:49:04;-2.10;99.90
17170;DHT22;8700;48.222;16.342;2023-12-04T03:52:25;-2.10;99.90
17170;DHT22;8700;48.222;16.342;2023-12-04T03:55:46;-2.10;99.90
17170;DHT22;8700;48.222;16.342;2023-12-04T03:59:08;-2.20;99.90
17170;DHT22;8700;48.222;16.342;2023-12-04T04:02:30;-2.20;99.90
17170;DHT22;8700;48.222;16.342;2023-12-04T04:05:52;-2.30;99.90
17170;DHT22;8700;48.222;16.342;2023-12-04T04:09:13;-2.30;99.90
17170;DHT22;8700;48.222;16.342;2023-12-04T04:12:35;-2.40;99.90
17170;DHT22;8700;48.222;16.342;2023-12-04T04:15:57;-2.40;99.90
17170;DHT22;8700;48.222;16.342;2023-12-04T04:19:18;-2.50;99.90
17170;DHT22;8700;48.222;16.342;2023-12-04T04:22:40;-2.40;99.90
17170;DHT22;8700;48.222;16.342;2023-12-04T04:26:01;-2.40;99.90
17170;DHT22;8700;48.222;16.342;2023-12-04T04:29:22;-2.50;99.90
17170;DHT22;8700;48.222;16.342;2023-12-04T04:32:44;-2.60;99.90
17170;DHT22;8700;48.222;16.342;2023-12-04T04:36:05;-2.60;99.90
17170;DHT22;8700;48.222;16.342;2023-12-04T04:39:31;-2.60;99.90
17170;DHT22;8700;48.222;16.342;2023-12-04T04:42:52;-2.60;99.90
17170;DHT22;8700;48.222;16.342;2023-12-04T04:46:13;-2.60;99.90
17170;DHT22;8700;48.222;16.342;2023-12-04T04:49:34;-2.70;99.90
17170;DHT22;8700;48.222;16.342;2023-12-04T04:52:55;-2.70;99.90
17170;DHT22;8700;48.222;16.342;2023-12-04T04:56:17;-2.70;99.90
17170;DHT22;8700;48.222;16.342;2023-12-04T04:59:39;-2.80;99.90
17170;DHT22;8700;48.222;16.342;2023-12-04T05:03:03;-2.80;99.90
17170;DHT22;8700;48.222;16.342;2023-12-04T05:06:24;-2.90;99.90
17170;DHT22;8700;48.222;16.342;2023-12-04T05:09:45;-3.00;99.90
17170;DHT22;8700;48.222;16.342;2023-12-04T05:13:08;-3.10;99.90
17170;DHT22;8700;48.222;16.342;2023-12-04T05:16:29;-2.90;99.90
17170;DHT22;8700;48.222;16.342;2023-12-04T05:19:50;-2.90;99.90
17170;DHT22;8700;48.222;16.342;2023-12-04T05:23:11;-2.90;99.90
17170;DHT22;8700;48.222;16.342;2023-12-04T05:26:32;-2.90;99.90
17170;DHT22;8700;48.222;16.342;2023-12-04T05:29:55;-2.90;99.90
17170;DHT22;8700;48.222;16.342;2023-12-04T05:33:16;-2.80;99.90
17170;DHT22;8700;48.222;16.342;2023-12-04T05:36:37;-2.80;99.90
17170;DHT22;8700;48.222;16.342;2023-12-04T05:39:58;-2.80;99.90
17170;DHT22;8700;48.222;16.342;2023-12-04T05:43:19;-2.80;99.90
17170;DHT22;8700;48.222;16.342;2023-12-04T05:46:42;-2.70;99.90
17170;DHT22;8700;48.222;16.342;2023-12-04T05:50:03;-2.70;99.90
17170;DHT22;8700;48.222;16.342;2023-12-04T05:53:24;-2.70;99.90
17170;DHT22;8700;48.222;16.342;2023-12-04T05:56:46;-2.70;99.90
17170;DHT22;8700;48.222;16.342;2023-12-04T06:00:08;-2.70;99.90
17170;DHT22;8700;48.222;16.342;2023-12-04T06:03:33;-2.70;99.90
17170;DHT22;8700;48.222;16.342;2023-12-04T06:06:55;-2.80;99.90
17170;DHT22;8700;48.222;16.342;2023-12-04T06:10:16;-2.80;99.90
17170;DHT22;8700;48.222;16.342;2023-12-04T06:13:38;-2.90;99.90
17170;DHT22;8700;48.222;16.342;2023-12-04T06:16:59;-3.10;99.90
17170;DHT22;8700;48.222;16.342;2023-12-04T06:20:21;-3.20;99.90
17170;DHT22;8700;48.222;16.342;2023-12-04T06:23:43;-3.30;99.90
17170;DHT22;8700;48.222;16.342;2023-12-04T06:27:05;-3.30;99.90
17170;DHT22;8700;48.222;16.342;2023-12-04T06:30:29;-3.30;99.90
17170;DHT22;8700;48.222;16.342;2023-12-04T06:33:51;-3.20;99.90
17170;DHT22;8700;48.222;16.342;2023-12-04T06:37:14;-3.10;99.90
17170;DHT22;8700;48.222;16.342;2023-12-04T06:40:36;-3.00;99.90
17170;DHT22;8700;48.222;16.342;2023-12-04T06:43:59;-3.00;99.90
17170;DHT22;8700;48.222;16.342;2023-12-04T06:47:23;-2.90;99.90
17170;DHT22;8700;48.222;16.342;2023-12-04T06:50:44;-2.80;99.90
17170;DHT22;8700;48.222;16.342;2023-12-04T06:54:06;-2.90;99.90
17170;DHT22;8700;48.222;16.342;2023-12-04T06:57:27;-2.90;99.90
17170;DHT22;8700;48.222;16.342;2023-12-04T07:00:49;-2.80;99.90
17170;DHT22;8700;48.222;16.342;2023-12-04T07:04:10;-2.90;99.90
17170;DHT22;8700;48.222;16.342;2023-12-04T07:07:31;-3.00;99.90
17170;DHT22;8700;48.222;16.342;2023-12-04T07:10:54;-2.90;99.90
17170;DHT22;8700;48.222;16.342;2023-12-04T07:14:15;-2.80;99.90
17170;DHT22;8700;48.222;16.342;2023-12-04T07:17:36;-2.70;99.90
17170;DHT22;8700;48.222;16.342;2023-12-04T07:20:57;-2.60;99.90
17170;DHT22;8700;48.222;16.342;2023-12-04T07:24:19;-2.60;99.90
17170;DHT22;8700;48.222;16.342;2023-12-04T07:27:41;-2.50;99.90
17170;DHT22;8700;48.222;16.342;2023-12-04T07:31:03;-2.50;99.90
17170;DHT22;8700;48.222;16.342;2023-12-04T07:34:24;-2.40;99.90
17170;DHT22;8700;48.222;16.342;2023-12-04T07:37:46;-2.20;99.90
17170;DHT22;8700;48.222;16.342;2023-12-04T07:41:07;-2.20;99.90
17170;DHT22;8700;48.222;16.342;2023-12-04T07:44:29;-2.20;99.90
17170;DHT22;8700;48.222;16.342;2023-12-04T07:47:51;-2.10;99.90
17170;DHT22;8700;48.222;16.342;2023-12-04T07:51:12;-2.10;99.90
17170;DHT22;8700;48.222;16.342;2023-12-04T07:54:33;-2.00;99.90
17170;DHT22;8700;48.222;16.342;2023-12-04T07:57:54;-1.90;99.90
17170;DHT22;8700;48.222;16.342;2023-12-04T08:01:17;-1.90;99.90
17170;DHT22;8700;48.222;16.342;2023-12-04T08:04:38;-1.80;99.90
17170;DHT22;8700;48.222;16.342;2023-12-04T08:07:59;-2.30;99.90
17170;DHT22;8700;48.222;16.342;2023-12-04T08:11:20;-2.30;99.90
17170;DHT22;8700;48.222;16.342;2023-12-04T08:14:41;-2.10;99.90
17170;DHT22;8700;48.222;16.342;2023-12-04T08:18:04;-2.00;99.90
17170;DHT22;8700;48.222;16.342;2023-12-04T08:21:25;-1.80;99.90
17170;DHT22;8700;48.222;16.342;2023-12-04T08:24:46;-1.70;99.90
17170;DHT22;8700;48.222;16.342;2023-12-04T08:28:07;-1.80;99.90
17170;DHT22;8700;48.222;16.342;2023-12-04T08:31:29;-1.90;99.90
17170;DHT22;8700;48.222;16.342;2023-12-04T08:34:52;-1.80;99.90
17170;DHT22;8700;48.222;16.342;2023-12-04T08:38:13;-1.70;99.90
17170;DHT22;8700;48.222;16.342;2023-12-04T08:41:35;-1.60;99.90
17170;DHT22;8700;48.222;16.342;2023-12-04T08:44:56;-1.20;99.90
17170;DHT22;8700;48.222;16.342;2023-12-04T08:48:17;-1.20;99.90
17170;DHT22;8700;48.222;16.342;2023-12-04T08:51:39;-1.50;99.90
17170;DHT22;8700;48.222;16.342;2023-12-04T08:55:00;-1.60;99.90
17170;DHT22;8700;48.222;16.342;2023-12-04T08:58:22;-1.60;99.90
17170;DHT22;8700;48.222;16.342;2023-12-04T09:01:43;-1.90;99.90
17170;DHT22;8700;48.222;16.342;2023-12-04T09:05:05;-1.50;99.90
17170;DHT22;8700;48.222;16.342;2023-12-04T09:08:28;-1.00;99.90
17170;DHT22;8700;48.222;16.342;2023-12-04T09:11:49;-0.80;99.90
17170;DHT22;8700;48.222;16.342;2023-12-04T09:15:10;-0.70;99.90
17170;DHT22;8700;48.222;16.342;2023-12-04T09:18:31;-0.50;99.90
17170;DHT22;8700;48.222;16.342;2023-12-04T09:21:52;-0.60;99.90
17170;DHT22;8700;48.222;16.342;2023-12-04T09:25:15;-0.80;99.90
17170;DHT22;8700;48.222;16.342;2023-12-04T09:28:36;-0.90;99.90
17170;DHT22;8700;48.222;16.342;2023-12-04T09:31:57;-1.10;99.90
17170;DHT22;8700;48.222;16.342;2023-12-04T09:35:18;-0.80;99.90
17170;DHT22;8700;48.222;16.342;2023-12-04T09:38:39;-0.50;99.90
17170;DHT22;8700;48.222;16.342;2023-12-04T09:42:02;-0.60;99.90
17170;DHT22;8700;48.222;16.342;2023-12-04T09:45:24;-0.80;99.90
17170;DHT22;8700;48.222;16.342;2023-12-04T09:48:45;-0.80;99.90
17170;DHT22;8700;48.222;16.342;2023-12-04T09:52:07;-0.70;99.90
17170;DHT22;8700;48.222;16.342;2023-12-04T09:55:28;-0.30;99.90
17170;DHT22;8700;48.222;16.342;2023-12-04T09:58:56;-0.10;99.90
17170;DHT22;8700;48.222;16.342;2023-12-04T10:02:18;0.00;99.90
17170;DHT22;8700;48.222;16.342;2023-12-04T10:05:43;0.00;99.90
17170;DHT22;8700;48.222;16.342;2023-12-04T10:09:05;0.10;99.90
17170;DHT22;8700;48.222;16.342;2023-12-04T10:12:31;0.20;99.90
17170;DHT22;8700;48.222;16.342;2023-12-04T10:15:55;0.30;99.90
17170;DHT22;8700;48.222;16.342;2023-12-04T10:19:18;-0.20;99.90
17170;DHT22;8700;48.222;16.342;2023-12-04T10:22:40;-0.50;99.90
17170;DHT22;8700;48.222;16.342;2023-12-04T10:26:14;0.00;99.90
17170;DHT22;8700;48.222;16.342;2023-12-04T10:29:43;0.00;99.90
17170;DHT22;8700;48.222;16.342;2023-12-04T10:33:07;0.30;99.90
17170;DHT22;8700;48.222;16.342;2023-12-04T10:36:29;0.30;99.90
17170;DHT22;8700;48.222;16.342;2023-12-04T10:39:51;0.70;99.90
17170;DHT22;8700;48.222;16.342;2023-12-04T10:43:17;1.20;99.90
17170;DHT22;8700;48.222;16.342;2023-12-04T10:46:41;1.20;99.90
17170;DHT22;8700;48.222;16.342;2023-12-04T10:50:05;1.20;99.90
17170;DHT22;8700;48.222;16.342;2023-12-04T10:53:27;1.90;99.90
17170;DHT22;8700;48.222;16.342;2023-12-04T10:56:49;2.60;99.90
17170;DHT22;8700;48.222;16.342;2023-12-04T11:00:13;2.70;99.90
17170;DHT22;8700;48.222;16.342;2023-12-04T11:03:42;3.10;99.90
17170;DHT22;8700;48.222;16.342;2023-12-04T11:07:06;3.10;99.90
17170;DHT22;8700;48.222;16.342;2023-12-04T11:10:30;3.00;99.90
17170;DHT22;8700;48.222;16.342;2023-12-04T11:13:56;3.60;99.90
17170;DHT22;8700;48.222;16.342;2023-12-04T11:17:20;3.50;99.90
17170;DHT22;8700;48.222;16.342;2023-12-04T11:20:46;3.50;99.90
17170;DHT22;8700;48.222;16.342;2023-12-04T11:24:10;3.60;99.90
17170;DHT22;8700;48.222;16.342;2023-12-04T11:27:32;4.10;99.90
17170;DHT22;8700;48.222;16.342;2023-12-04T11:30:53;3.70;99.90
17170;DHT22;8700;48.222;16.342;2023-12-04T11:34:15;4.10;99.90
17170;DHT22;8700;48.222;16.342;2023-12-04T11:37:37;4.60;99.90
17170;DHT22;8700;48.222;16.342;2023-12-04T11:41:00;4.40;99.90
17170;DHT22;8700;48.222;16.342;2023-12-04T11:44:21;4.50;99.90
17170;DHT22;8700;48.222;16.342;2023-12-04T11:47:49;3.80;99.90
17170;DHT22;8700;48.222;16.342;2023-12-04T11:51:15;3.80;99.90
17170;DHT22;8700;48.222;16.342;2023-12-04T11:54:58;4.30;99.90
17170;DHT22;8700;48.222;16.342;2023-12-04T11:58:21;3.90;99.90
17170;DHT22;8700;48.222;16.342;2023-12-04T12:01:43;3.70;99.90
17170;DHT22;8700;48.222;16.342;2023-12-04T12:05:04;3.50;99.90
17170;DHT22;8700;48.222;16.342;2023-12-04T12:08:28;3.40;99.90
17170;DHT22;8700;48.222;16.342;2023-12-04T12:11:49;3.50;99.90
17170;DHT22;8700;48.222;16.342;2023-12-04T12:15:12;3.00;99.90
17170;DHT22;8700;48.222;16.342;2023-12-04T12:18:34;3.00;99.90
17170;DHT22;8700;48.222;16.342;2023-12-04T12:22:01;3.20;99.90
17170;DHT22;8700;48.222;16.342;2023-12-04T12:25:23;3.00;99.90
17170;DHT22;8700;48.222;16.342;2023-12-04T12:28:46;2.70;99.90
17170;DHT22;8700;48.222;16.342;2023-12-04T12:32:08;2.50;99.90
17170;DHT22;8700;48.222;16.342;2023-12-04T12:35:30;2.70;99.90
17170;DHT22;8700;48.222;16.342;2023-12-04T12:38:51;2.50;99.90
17170;DHT22;8700;48.222;16.342;2023-12-04T12:42:21;2.20;99.90
17170;DHT22;8700;48.222;16.342;2023-12-04T12:45:43;2.60;99.90
17170;DHT22;8700;48.222;16.342;2023-12-04T12:49:07;2.70;99.90
17170;DHT22;8700;48.222;16.342;2023-12-04T12:52:29;2.30;99.90
17170;DHT22;8700;48.222;16.342;2023-12-04T12:55:50;2.10;99.90
17170;DHT22;8700;48.222;16.342;2023-12-04T12:59:12;1.90;99.90
17170;DHT22;8700;48.222;16.342;2023-12-04T13:02:35;2.10;99.90
17170;DHT22;8700;48.222;16.342;2023-12-04T13:05:58;2.00;99.90
17170;DHT22;8700;48.222;16.342;2023-12-04T13:09:19;2.00;99.90
17170;DHT22;8700;48.222;16.342;2023-12-04T13:12:41;2.00;99.90
17170;DHT22;8700;48.222;16.342;2023-12-04T13:16:03;1.70;99.90
17170;DHT22;8700;48.222;16.342;2023-12-04T13:19:26;1.60;99.90
17170;DHT22;8700;48.222;16.342;2023-12-04T13:22:48;1.70;99.90
17170;DHT22;8700;48.222;16.342;2023-12-04T13:26:09;1.90;99.90
17170;DHT22;8700;48.222;16.342;2023-12-04T13:29:31;1.80;99.90
17170;DHT22;8700;48.222;16.342;2023-12-04T13:32:52;1.70;99.90
17170;DHT22;8700;48.222;16.342;2023-12-04T13:36:13;1.70;99.90
17170;DHT22;8700;48.222;16.342;2023-12-04T13:39:35;1.90;99.90
17170;DHT22;8700;48.222;16.342;2023-12-04T13:43:08;2.00;99.90
17170;DHT22;8700;48.222;16.342;2023-12-04T13:46:47;2.00;99.90
17170;DHT22;8700;48.222;16.342;2023-12-04T13:50:09;2.10;99.90
17170;DHT22;8700;48.222;16.342;2023-12-04T13:53:30;2.10;99.90
17170;DHT22;8700;48.222;16.342;2023-12-04T13:56:53;2.10;99.90
17170;DHT22;8700;48.222;16.342;2023-12-04T14:00:14;2.00;99.90
17170;DHT22;8700;48.222;16.342;2023-12-04T14:03:35;1.90;99.90
17170;DHT22;8700;48.222;16.342;2023-12-04T14:06:57;1.90;99.90
17170;DHT22;8700;48.222;16.342;2023-12-04T14:10:18;2.10;99.90
17170;DHT22;8700;48.222;16.342;2023-12-04T14:13:40;2.40;99.90
17170;DHT22;8700;48.222;16.342;2023-12-04T14:17:01;2.30;99.90
17170;DHT22;8700;48.222;16.342;2023-12-04T14:20:24;1.80;99.90
17170;DHT22;8700;48.222;16.342;2023-12-04T14:23:45;2.10;99.90
17170;DHT22;8700;48.222;16.342;2023-12-04T14:27:06;2.10;99.90
17170;DHT22;8700;48.222;16.342;2023-12-04T14:30:29;2.10;99.90
17170;DHT22;8700;48.222;16.342;2023-12-04T14:33:50;2.10;99.90
17170;DHT22;8700;48.222;16.342;2023-12-04T14:37:12;1.70;99.90
17170;DHT22;8700;48.222;16.342;2023-12-04T14:40:33;1.50;99.90
17170;DHT22;8700;48.222;16.342;2023-12-04T14:43:55;1.40;99.90
17170;DHT22;8700;48.222;16.342;2023-12-04T14:47:17;1.40;99.90
17170;DHT22;8700;48.222;16.342;2023-12-04T14:50:38;1.30;99.90
17170;DHT22;8700;48.222;16.342;2023-12-04T14:53:59;1.20;99.90
17170;DHT22;8700;48.222;16.342;2023-12-04T14:57:34;1.20;99.90
17170;DHT22;8700;48.222;16.342;2023-12-04T15:01:16;1.20;99.90
17170;DHT22;8700;48.222;16.342;2023-12-04T15:04:55;1.10;99.90
17170;DHT22;8700;48.222;16.342;2023-12-04T15:08:30;1.10;99.90
17170;DHT22;8700;48.222;16.342;2023-12-04T15:12:20;1.30;99.90
17170;DHT22;8700;48.222;16.342;2023-12-04T15:15:48;1.30;99.90
17170;DHT22;8700;48.222;16.342;2023-12-04T15:19:34;1.40;99.90
17170;DHT22;8700;48.222;16.342;2023-12-04T15:23:04;1.30;99.90
17170;DHT22;8700;48.222;16.342;2023-12-04T15:26:25;1.40;99.90
17170;DHT22;8700;48.222;16.342;2023-12-04T15:29:47;1.40;99.90
17170;DHT22;8700;48.222;16.342;2023-12-04T15:33:08;1.70;99.90
17170;DHT22;8700;48.222;16.342;2023-12-04T15:36:28;1.50;99.90
17170;DHT22;8700;48.222;16.342;2023-12-04T15:39:51;1.50;99.90
17170;DHT22;8700;48.222;16.342;2023-12-04T15:43:13;1.20;99.90
17170;DHT22;8700;48.222;16.342;2023-12-04T15:46:34;1.20;99.90
17170;DHT22;8700;48.222;16.342;2023-12-04T15:49:55;1.60;99.90
17170;DHT22;8700;48.222;16.342;2023-12-04T15:53:15;1.60;99.90
17170;DHT22;8700;48.222;16.342;2023-12-04T15:56:38;1.40;99.90
17170;DHT22;8700;48.222;16.342;2023-12-04T15:59:59;1.30;99.90
17170;DHT22;8700;48.222;16.342;2023-12-04T16:03:19;1.20;99.90
17170;DHT22;8700;48.222;16.342;2023-12-04T16:06:40;1.10;99.90
17170;DHT22;8700;48.222;16.342;2023-12-04T16:10:01;1.30;99.90
17170;DHT22;8700;48.222;16.342;2023-12-04T16:13:24;1.30;99.90
17170;DHT22;8700;48.222;16.342;2023-12-04T16:16:45;1.50;99.90
17170;DHT22;8700;48.222;16.342;2023-12-04T16:20:07;1.40;99.90
17170;DHT22;8700;48.222;16.342;2023-12-04T16:23:30;1.40;99.90
17170;DHT22;8700;48.222;16.342;2023-12-04T16:26:51;1.40;99.90
17170;DHT22;8700;48.222;16.342;2023-12-04T16:30:16;1.40;99.90
17170;DHT22;8700;48.222;16.342;2023-12-04T16:33:38;1.40;99.90
17170;DHT22;8700;48.222;16.342;2023-12-04T16:37:00;1.50;99.90
17170;DHT22;8700;48.222;16.342;2023-12-04T16:40:22;1.60;99.90
17170;DHT22;8700;48.222;16.342;2023-12-04T16:43:43;1.70;99.90
17170;DHT22;8700;48.222;16.342;2023-12-04T16:47:06;1.70;99.90
17170;DHT22;8700;48.222;16.342;2023-12-04T16:50:29;1.60;99.90
17170;DHT22;8700;48.222;16.342;2023-12-04T16:53:51;1.60;99.90
17170;DHT22;8700;48.222;16.342;2023-12-04T16:57:13;1.30;99.90
17170;DHT22;8700;48.222;16.342;2023-12-04T17:00:34;1.30;99.90
17170;DHT22;8700;48.222;16.342;2023-12-04T17:03:56;1.50;99.90
17170;DHT22;8700;48.222;16.342;2023-12-04T17:07:17;1.40;99.90
17170;DHT22;8700;48.222;16.342;2023-12-04T17:10:39;1.30;99.90
17170;DHT22;8700;48.222;16.342;2023-12-04T17:14:00;1.00;99.90
17170;DHT22;8700;48.222;16.342;2023-12-04T17:17:21;1.10;99.90
17170;DHT22;8700;48.222;16.342;2023-12-04T17:20:44;0.90;99.90
17170;DHT22;8700;48.222;16.342;2023-12-04T17:24:05;1.10;99.90
17170;DHT22;8700;48.222;16.342;2023-12-04T17:27:27;1.10;99.90
17170;DHT22;8700;48.222;16.342;2023-12-04T17:30:48;1.40;99.90
17170;DHT22;8700;48.222;16.342;2023-12-04T17:34:11;1.00;99.90
17170;DHT22;8700;48.222;16.342;2023-12-04T17:37:34;1.00;99.90
17170;DHT22;8700;48.222;16.342;2023-12-04T17:40:56;1.00;99.90
17170;DHT22;8700;48.222;16.342;2023-12-04T17:44:17;1.10;99.90
17170;DHT22;8700;48.222;16.342;2023-12-04T17:47:38;0.90;99.90
17170;DHT22;8700;48.222;16.342;2023-12-04T17:50:59;0.90;99.90
17170;DHT22;8700;48.222;16.342;2023-12-04T17:54:22;0.80;99.90
17170;DHT22;8700;48.222;16.342;2023-12-04T17:57:44;0.80;99.90
17170;DHT22;8700;48.222;16.342;2023-12-04T18:01:05;0.80;99.90
17170;DHT22;8700;48.222;16.342;2023-12-04T18:04:26;0.80;99.90
17170;DHT22;8700;48.222;16.342;2023-12-04T18:07:47;0.80;99.90
17170;DHT22;8700;48.222;16.342;2023-12-04T18:11:10;1.00;99.90
17170;DHT22;8700;48.222;16.342;2023-12-04T18:14:31;1.00;99.90
17170;DHT22;8700;48.222;16.342;2023-12-04T18:17:53;0.90;99.90
17170;DHT22;8700;48.222;16.342;2023-12-04T18:21:14;0.70;99.90
17170;DHT22;8700;48.222;16.342;2023-12-04T18:24:36;0.90;99.90
17170;DHT22;8700;48.222;16.342;2023-12-04T18:27:59;1.00;99.90
17170;DHT22;8700;48.222;16.342;2023-12-04T18:31:22;1.10;99.90
17170;DHT22;8700;48.222;16.342;2023-12-04T18:34:43;0.90;99.90
17170;DHT22;8700;48.222;16.342;2023-12-04T18:38:06;0.90;99.90
17170;DHT22;8700;48.222;16.342;2023-12-04T18:41:29;1.00;99.90
17170;DHT22;8700;48.222;16.342;2023-12-04T18:44:53;1.00;99.90
17170;DHT22;8700;48.222;16.342;2023-12-04T18:48:16;0.80;99.90
17170;DHT22;8700;48.222;16.342;2023-12-04T18:51:40;0.90;99.90
17170;DHT22;8700;48.222;16.342;2023-12-04T18:55:01;0.70;99.90
17170;DHT22;8700;48.222;16.342;2023-12-04T18:58:22;0.80;99.90
17170;DHT22;8700;48.222;16.342;2023-12-04T19:01:44;0.80;99.90
17170;DHT22;8700;48.222;16.342;2023-12-04T19:05:06;0.80;99.90
17170;DHT22;8700;48.222;16.342;2023-12-04T19:08:27;0.80;99.90
17170;DHT22;8700;48.222;16.342;2023-12-04T19:11:49;0.90;99.90
17170;DHT22;8700;48.222;16.342;2023-12-04T19:15:10;0.90;99.90
17170;DHT22;8700;48.222;16.342;2023-12-04T19:18:33;0.90;99.90
17170;DHT22;8700;48.222;16.342;2023-12-04T19:21:54;1.20;99.90
17170;DHT22;8700;48.222;16.342;2023-12-04T19:25:16;1.00;99.90
17170;DHT22;8700;48.222;16.342;2023-12-04T19:28:37;1.10;99.90
17170;DHT22;8700;48.222;16.342;2023-12-04T19:31:58;1.20;99.90
17170;DHT22;8700;48.222;16.342;2023-12-04T19:35:21;1.20;99.90
17170;DHT22;8700;48.222;16.342;2023-12-04T19:38:42;0.90;99.90
17170;DHT22;8700;48.222;16.342;2023-12-04T19:42:03;0.80;99.90
17170;DHT22;8700;48.222;16.342;2023-12-04T19:45:24;0.80;99.90
17170;DHT22;8700;48.222;16.342;2023-12-04T19:48:45;1.00;99.90
17170;DHT22;8700;48.222;16.342;2023-12-04T19:52:08;0.90;99.90
17170;DHT22;8700;48.222;16.342;2023-12-04T19:55:29;0.90;99.90
17170;DHT22;8700;48.222;16.342;2023-12-04T19:58:51;1.00;99.90
17170;DHT22;8700;48.222;16.342;2023-12-04T20:02:11;1.00;99.90
17170;DHT22;8700;48.222;16.342;2023-12-04T20:05:34;1.00;99.90
17170;DHT22;8700;48.222;16.342;2023-12-04T20:08:56;0.90;99.90
17170;DHT22;8700;48.222;16.342;2023-12-04T20:12:18;0.80;99.90
17170;DHT22;8700;48.222;16.342;2023-12-04T20:15:39;0.90;99.90
17170;DHT22;8700;48.222;16.342;2023-12-04T20:19:01;1.10;99.90
17170;DHT22;8700;48.222;16.342;2023-12-04T20:22:23;1.10;99.90
17170;DHT22;8700;48.222;16.342;2023-12-04T20:25:45;1.00;99.90
17170;DHT22;8700;48.222;16.342;2023-12-04T20:29:06;0.90;99.90
17170;DHT22;8700;48.222;16.342;2023-12-04T20:32:27;1.00;99.90
17170;DHT22;8700;48.222;16.342;2023-12-04T20:35:50;0.90;99.90
17170;DHT22;8700;48.222;16.342;2023-12-04T20:39:11;0.60;99.90
17170;DHT22;8700;48.222;16.342;2023-12-04T20:42:36;0.60;99.90
17170;DHT22;8700;48.222;16.342;2023-12-04T20:45:57;0.70;99.90
17170;DHT22;8700;48.222;16.342;2023-12-04T20:49:18;0.80;99.90
17170;DHT22;8700;48.222;16.342;2023-12-04T20:52:39;0.80;99.90
17170;DHT22;8700;48.222;16.342;2023-12-04T20:56:00;0.80;99.90
17170;DHT22;8700;48.222;16.342;2023-12-04T20:59:23;0.70;99.90
17170;DHT22;8700;48.222;16.342;2023-12-04T21:02:44;0.80;99.90
17170;DHT22;8700;48.222;16.342;2023-12-04T21:06:06;0.80;99.90
17170;DHT22;8700;48.222;16.342;2023-12-04T21:09:27;0.90;99.90
17170;DHT22;8700;48.222;16.342;2023-12-04T21:12:50;0.60;99.90
17170;DHT22;8700;48.222;16.342;2023-12-04T21:16:12;0.60;99.90
17170;DHT22;8700;48.222;16.342;2023-12-04T21:19:34;0.50;99.90
17170;DHT22;8700;48.222;16.342;2023-12-04T21:22:55;0.70;99.90
17170;DHT22;8700;48.222;16.342;2023-12-04T21:26:16;0.60;99.90
17170;DHT22;8700;48.222;16.342;2023-12-04T21:29:37;0.80;99.90